Hewlett Bay Park, New York
Current Conditions -  °F | °C
As of 6:51 AM on Saturday 01 Nov 2014 (Local Time) from KJFK Reporting Station
Light Rain Light Rain  
Wind Chill: 40°   Ceiling: 5500
Heat Index: 47°   Visibility: 10mi
Dew Point: 39°   Wind: 20mph
Humidity: 74%   Direction: 20°NNE
Pressure: 29.81"   Gusts: 26mph
Location:  40.637°N, 73.6912°W
Report Text: KJFK 011051Z 02017G23KT 10SM -RA BKN055 OVC070 08/04 A2981 RMK AO2 SLP095 P0000 T00830039 $
Loading
Personal Weather Stations






























Interactive Weather Map
Tropical Storm Tracking
New forecast layout! Learn more

10-Day Weather Forecast

Advertisements
Track Severe Weather on mobile